createdAt,value
2024-01-03T00:00:16.723Z,77.000000
2024-01-03T00:05:16.593Z,77.000000
2024-01-03T00:10:16.669Z,78.000000
2024-01-03T00:15:16.770Z,78.000000
2024-01-03T00:20:16.772Z,78.000000
2024-01-03T00:25:16.728Z,77.000000
2024-01-03T00:30:16.666Z,78.000000
2024-01-03T00:35:16.893Z,78.000000
2024-01-03T00:40:16.668Z,78.000000
2024-01-03T00:45:16.720Z,78.000000
2024-01-03T00:50:16.735Z,78.000000
2024-01-03T00:55:16.755Z,79.000000
2024-01-03T01:00:16.841Z,79.000000
2024-01-03T01:05:16.982Z,79.000000
2024-01-03T01:10:16.902Z,79.000000
2024-01-03T01:15:16.759Z,79.000000
2024-01-03T01:20:16.780Z,79.000000
2024-01-03T01:25:16.903Z,79.000000
2024-01-03T01:30:16.898Z,79.000000
2024-01-03T01:35:16.912Z,79.000000
2024-01-03T01:40:16.863Z,79.000000
2024-01-03T01:45:17.037Z,79.000000
2024-01-03T01:50:17.154Z,79.000000
2024-01-03T01:55:16.910Z,79.000000
2024-01-03T02:00:16.992Z,78.000000
2024-01-03T02:05:17.142Z,78.000000
2024-01-03T02:10:17.073Z,78.000000
2024-01-03T02:15:17.026Z,78.000000
2024-01-03T02:20:17.285Z,78.000000
2024-01-03T02:25:16.987Z,78.000000
2024-01-03T02:30:17.252Z,79.000000
2024-01-03T02:35:18.174Z,79.000000
2024-01-03T02:40:16.935Z,79.000000
2024-01-03T02:45:17.235Z,79.000000
2024-01-03T02:50:17.499Z,79.000000
2024-01-03T02:55:17.197Z,79.000000
2024-01-03T03:00:17.170Z,79.000000
2024-01-03T03:05:17.196Z,79.000000
2024-01-03T03:10:17.143Z,79.000000
2024-01-03T03:15:17.320Z,79.000000
2024-01-03T03:20:17.142Z,79.000000
2024-01-03T03:25:17.819Z,79.000000
2024-01-03T03:30:17.114Z,79.000000
2024-01-03T03:35:17.118Z,79.000000
2024-01-03T03:40:17.111Z,79.000000
2024-01-03T03:45:17.132Z,79.000000
2024-01-03T03:50:17.031Z,79.000000
2024-01-03T03:55:17.523Z,79.000000
2024-01-03T04:00:17.127Z,79.000000
2024-01-03T04:05:17.287Z,79.000000
2024-01-03T04:10:17.181Z,79.000000
2024-01-03T04:15:17.149Z,79.000000
2024-01-03T04:20:17.314Z,79.000000
2024-01-03T04:25:17.190Z,80.000000
2024-01-03T04:30:17.194Z,80.000000
2024-01-03T04:35:17.291Z,80.000000
2024-01-03T04:40:17.206Z,80.000000
2024-01-03T04:45:17.354Z,80.000000
2024-01-03T04:50:17.436Z,80.000000
2024-01-03T04:55:17.277Z,80.000000
2024-01-03T05:00:16.332Z,80.000000
2024-01-03T05:05:16.621Z,80.000000
2024-01-03T05:10:16.396Z,80.000000
2024-01-03T05:15:16.324Z,81.000000
2024-01-03T05:20:16.380Z,81.000000
2024-01-03T05:25:16.369Z,80.000000
2024-01-03T05:30:16.545Z,80.000000
2024-01-03T05:35:16.580Z,80.000000
2024-01-03T05:40:16.447Z,80.000000
2024-01-03T05:45:16.365Z,80.000000
2024-01-03T05:50:16.977Z,80.000000
2024-01-03T05:55:16.471Z,80.000000
2024-01-03T06:00:16.645Z,80.000000
2024-01-03T06:05:16.859Z,80.000000
2024-01-03T06:10:16.386Z,80.000000
2024-01-03T06:15:16.457Z,80.000000
2024-01-03T06:20:16.453Z,79.000000
2024-01-03T06:25:16.492Z,79.000000
2024-01-03T06:30:16.835Z,79.000000
2024-01-03T06:35:16.451Z,80.000000
2024-01-03T06:40:16.487Z,80.000000
2024-01-03T06:45:16.508Z,80.000000
2024-01-03T06:50:16.669Z,80.000000
2024-01-03T06:55:16.621Z,80.000000
2024-01-03T07:00:16.470Z,80.000000
2024-01-03T07:05:16.753Z,80.000000
2024-01-03T07:10:16.572Z,80.000000
2024-01-03T07:15:16.597Z,80.000000
2024-01-03T07:20:16.768Z,81.000000
2024-01-03T07:25:16.733Z,81.000000
2024-01-03T07:30:16.726Z,81.000000
2024-01-03T07:35:16.793Z,80.000000
2024-01-03T07:40:16.630Z,80.000000
2024-01-03T07:45:16.605Z,81.000000
2024-01-03T07:50:16.742Z,80.000000
2024-01-03T07:55:16.595Z,80.000000
2024-01-03T08:00:16.708Z,80.000000
2024-01-03T08:05:16.780Z,80.000000
2024-01-03T08:10:16.679Z,80.000000
2024-01-03T08:15:16.744Z,81.000000
2024-01-03T08:20:16.948Z,81.000000
2024-01-03T08:25:16.731Z,81.000000
2024-01-03T08:30:16.778Z,81.000000
2024-01-03T08:35:16.739Z,81.000000
2024-01-03T08:40:16.772Z,81.000000
2024-01-03T08:45:16.753Z,81.000000
2024-01-03T08:50:16.872Z,81.000000
2024-01-03T08:55:16.791Z,81.000000
2024-01-03T09:00:16.756Z,81.000000
2024-01-03T09:05:17.059Z,81.000000
2024-01-03T09:10:16.779Z,81.000000
2024-01-03T09:15:16.867Z,81.000000
2024-01-03T09:20:16.827Z,81.000000
2024-01-03T09:25:16.876Z,81.000000
2024-01-03T09:30:17.088Z,82.000000
2024-01-03T09:35:16.903Z,82.000000
2024-01-03T09:40:17.067Z,83.000000
2024-01-03T09:45:17.018Z,83.000000
2024-01-03T09:50:16.886Z,82.000000
2024-01-03T09:55:16.883Z,81.000000
2024-01-03T10:00:16.965Z,81.000000
2024-01-03T10:05:17.025Z,81.000000
2024-01-03T10:10:16.925Z,82.000000
2024-01-03T10:15:16.953Z,82.000000
2024-01-03T10:20:17.027Z,82.000000
2024-01-03T10:25:16.919Z,82.000000
2024-01-03T10:30:17.126Z,82.000000
2024-01-03T10:35:17.102Z,82.000000
2024-01-03T10:40:17.779Z,82.000000
2024-01-03T10:45:17.028Z,82.000000
2024-01-03T10:50:17.015Z,82.000000
2024-01-03T10:55:17.060Z,82.000000
2024-01-03T11:00:17.072Z,83.000000
2024-01-03T11:05:17.281Z,83.000000
2024-01-03T11:10:17.088Z,83.000000
2024-01-03T11:15:17.161Z,83.000000
2024-01-03T11:20:17.161Z,84.000000
2024-01-03T11:25:17.304Z,83.000000
2024-01-03T11:30:17.219Z,82.000000
2024-01-03T11:35:17.107Z,82.000000
2024-01-03T11:40:17.146Z,82.000000
2024-01-03T11:45:17.817Z,82.000000
2024-01-03T11:50:17.548Z,83.000000
2024-01-03T11:55:17.218Z,82.000000
2024-01-03T12:00:17.216Z,82.000000
2024-01-03T12:05:17.778Z,82.000000
2024-01-03T12:10:17.368Z,83.000000
2024-01-03T12:15:17.191Z,83.000000
2024-01-03T12:20:17.321Z,84.000000
2024-01-03T12:25:17.179Z,83.000000
2024-01-03T12:30:17.397Z,83.000000
2024-01-03T12:35:17.232Z,83.000000
2024-01-03T12:40:17.245Z,83.000000
2024-01-03T12:45:18.047Z,84.000000
2024-01-03T12:50:17.282Z,84.000000
2024-01-03T12:55:17.231Z,84.000000
2024-01-03T13:00:17.423Z,85.000000
2024-01-03T13:05:17.593Z,85.000000
2024-01-03T13:10:17.530Z,85.000000
2024-01-03T13:15:17.405Z,84.000000
2024-01-03T13:20:17.333Z,84.000000
2024-01-03T13:25:17.493Z,83.000000
2024-01-03T13:30:17.578Z,83.000000
2024-01-03T13:35:17.898Z,83.000000
2024-01-03T13:40:18.100Z,82.000000
2024-01-03T13:45:17.524Z,82.000000
2024-01-03T13:50:17.505Z,82.000000
2024-01-03T13:55:17.473Z,82.000000
2024-01-03T14:00:17.401Z,82.000000
2024-01-03T14:05:15.612Z,83.000000
2024-01-03T14:10:15.526Z,83.000000
2024-01-03T14:15:15.769Z,83.000000
2024-01-03T14:20:15.471Z,82.000000
2024-01-03T14:25:15.425Z,81.000000
2024-01-03T14:30:15.600Z,79.000000
2024-01-03T14:35:15.577Z,79.000000
2024-01-03T14:40:15.551Z,79.000000
2024-01-03T14:45:16.004Z,78.000000
2024-01-03T14:50:15.555Z,76.000000
2024-01-03T14:55:15.508Z,76.000000
2024-01-03T15:00:15.732Z,76.000000
2024-01-03T15:05:15.577Z,75.000000
2024-01-03T15:10:15.547Z,74.000000
2024-01-03T15:15:15.642Z,73.000000
2024-01-03T15:20:15.634Z,74.000000
2024-01-03T15:25:15.583Z,74.000000
2024-01-03T15:30:15.983Z,74.000000
2024-01-03T15:35:15.604Z,74.000000
2024-01-03T15:40:17.731Z,73.000000
2024-01-03T15:45:15.700Z,72.000000
2024-01-03T15:50:15.775Z,72.000000
2024-01-03T15:55:15.832Z,72.000000
2024-01-03T16:00:15.812Z,71.000000
2024-01-03T16:05:15.723Z,71.000000
2024-01-03T16:10:15.716Z,70.000000
2024-01-03T16:15:15.852Z,71.000000
2024-01-03T16:20:15.743Z,71.000000
2024-01-03T16:25:15.802Z,71.000000
2024-01-03T16:30:16.180Z,70.000000
2024-01-03T16:35:15.750Z,70.000000
2024-01-03T16:40:15.805Z,69.000000
2024-01-03T16:45:15.792Z,69.000000
2024-01-03T16:50:16.018Z,70.000000
2024-01-03T16:55:15.808Z,69.000000
2024-01-03T17:00:16.057Z,68.000000
2024-01-03T17:05:15.894Z,69.000000
2024-01-03T17:10:15.845Z,69.000000
2024-01-03T17:15:16.035Z,67.000000
2024-01-03T17:20:15.853Z,67.000000
2024-01-03T17:25:15.869Z,67.000000
2024-01-03T17:30:16.423Z,68.000000
2024-01-03T17:35:15.770Z,68.000000
2024-01-03T17:40:15.925Z,68.000000
2024-01-03T17:45:17.353Z,68.000000
2024-01-03T17:50:15.941Z,68.000000
2024-01-03T17:55:15.989Z,69.000000
2024-01-03T18:00:15.908Z,69.000000
2024-01-03T18:05:16.018Z,69.000000
2024-01-03T18:10:15.990Z,70.000000
2024-01-03T18:15:15.934Z,69.000000
2024-01-03T18:20:16.034Z,70.000000
2024-01-03T18:25:16.466Z,69.000000
2024-01-03T18:30:16.148Z,69.000000
2024-01-03T18:35:16.110Z,69.000000
2024-01-03T18:40:16.275Z,70.000000
2024-01-03T18:45:16.220Z,70.000000
2024-01-03T18:50:16.089Z,70.000000
2024-01-03T18:55:16.100Z,70.000000
2024-01-03T19:00:16.247Z,70.000000
2024-01-03T19:05:16.766Z,71.000000
2024-01-03T19:10:16.315Z,70.000000
2024-01-03T19:15:16.292Z,70.000000
2024-01-03T19:20:16.172Z,71.000000
2024-01-03T19:25:16.661Z,71.000000
2024-01-03T19:30:16.253Z,71.000000
2024-01-03T19:35:16.131Z,71.000000
2024-01-03T19:40:16.205Z,71.000000
2024-01-03T19:45:18.984Z,71.000000
2024-01-03T19:50:16.192Z,71.000000
2024-01-03T19:55:16.299Z,71.000000
2024-01-03T20:00:16.334Z,72.000000
2024-01-03T20:05:17.436Z,71.000000
2024-01-03T20:10:16.215Z,72.000000
2024-01-03T20:15:16.473Z,71.000000
2024-01-03T20:20:16.464Z,72.000000
2024-01-03T20:25:16.276Z,72.000000
2024-01-03T20:30:16.331Z,72.000000
2024-01-03T20:35:16.355Z,72.000000
2024-01-03T20:40:16.420Z,72.000000
2024-01-03T20:45:16.374Z,73.000000
2024-01-03T20:50:16.374Z,73.000000
2024-01-03T20:55:16.318Z,74.000000
2024-01-03T21:00:16.622Z,74.000000
2024-01-03T21:05:16.610Z,75.000000
2024-01-03T21:10:16.509Z,75.000000
2024-01-03T21:15:17.173Z,75.000000
2024-01-03T21:20:16.385Z,75.000000
2024-01-03T21:25:16.534Z,75.000000
2024-01-03T21:30:16.627Z,76.000000
2024-01-03T21:35:16.481Z,76.000000
2024-01-03T21:40:16.487Z,76.000000
2024-01-03T21:45:16.444Z,76.000000
2024-01-03T21:50:16.514Z,76.000000
2024-01-03T21:55:16.502Z,76.000000
2024-01-03T22:00:17.046Z,77.000000
2024-01-03T22:05:16.613Z,77.000000
2024-01-03T22:10:16.440Z,77.000000
2024-01-03T22:15:16.598Z,77.000000
2024-01-03T22:20:17.160Z,77.000000
2024-01-03T22:25:16.730Z,77.000000
2024-01-03T22:30:16.601Z,78.000000
2024-01-03T22:35:16.642Z,78.000000
2024-01-03T22:40:16.541Z,78.000000
2024-01-03T22:45:16.646Z,78.000000
2024-01-03T22:50:16.932Z,78.000000
2024-01-03T22:55:16.713Z,79.000000
2024-01-03T23:00:16.815Z,79.000000
2024-01-03T23:05:16.707Z,79.000000
2024-01-03T23:10:16.665Z,79.000000
2024-01-03T23:15:16.746Z,79.000000
2024-01-03T23:20:16.926Z,79.000000
2024-01-03T23:25:16.703Z,80.000000
2024-01-03T23:30:16.764Z,80.000000
2024-01-03T23:35:16.740Z,80.000000
2024-01-03T23:40:17.898Z,81.000000
2024-01-03T23:45:16.758Z,81.000000
2024-01-03T23:50:16.666Z,81.000000
2024-01-03T23:55:16.822Z,81.000000
